Terminal Aerodrome Forecast
Issued by NWS

Home | Current Version | Previous Version | Graphics & Text | Print | Product List | Glossary On
Versions: 1 2 3 4 5 6 7 8 9 10 11 12 13 14 15 16 17 18
000
FTUS43 KUNR 300501
TAFGCC
TAF
KGCC 300501Z 3006/0106 11005KT P6SM SCT023 OVC035
      TEMPO 3006/3008 -RA OVC023
     FM300800 13007KT P6SM OVC020
     FM301000 05008KT 5SM -RA OVC012
     FM301200 03003KT 3SM -RASN OVC009
     FM301500 06010KT 5SM -RA OVC015
     FM302000 04014G24KT P6SM OVC025
     FM010000 04012KT P6SM OVC090=

USA.gov is the U.S. government's official web portal to all federal, state and local government web resources and services.